createdAt,value
2024-03-31T00:01:05.542Z,29
2024-03-31T00:16:05.245Z,31
2024-03-31T00:31:04.997Z,33
2024-03-31T00:46:05.450Z,27
2024-03-31T01:01:05.796Z,26
2024-03-31T01:16:04.778Z,22
2024-03-31T01:31:05.760Z,25
2024-03-31T01:46:05.811Z,23
2024-03-31T02:01:05.612Z,31
2024-03-31T02:16:05.727Z,37
2024-03-31T02:31:05.245Z,27
2024-03-31T02:46:04.828Z,28
2024-03-31T03:01:06.068Z,23
2024-03-31T03:16:04.901Z,19
2024-03-31T03:31:05.556Z,18
2024-03-31T03:46:05.791Z,19
2024-03-31T04:01:05.755Z,15
2024-03-31T04:16:05.465Z,13
2024-03-31T04:31:05.353Z,12
2024-03-31T04:46:05.336Z,13
2024-03-31T05:01:05.736Z,13
2024-03-31T05:16:05.179Z,13
2024-03-31T05:31:05.498Z,15
2024-03-31T06:01:05.478Z,17
2024-03-31T06:16:04.890Z,12
2024-03-31T06:31:05.594Z,14
2024-03-31T06:46:04.619Z,13
2024-03-31T07:01:04.856Z,14
2024-03-31T07:16:05.899Z,16
2024-03-31T07:31:05.459Z,14
2024-03-31T07:46:05.764Z,14
2024-03-31T08:01:05.474Z,21
2024-03-31T08:16:04.954Z,17
2024-03-31T08:31:05.512Z,17
2024-03-31T08:46:05.252Z,23
2024-03-31T09:01:05.113Z,18
2024-03-31T09:16:05.623Z,23
2024-03-31T09:31:05.787Z,29
2024-03-31T09:46:05.320Z,40
2024-03-31T10:01:05.086Z,36
2024-03-31T10:16:05.998Z,34
2024-03-31T10:31:05.010Z,47
2024-03-31T10:46:04.968Z,42
2024-03-31T11:01:05.080Z,43
2024-03-31T11:16:05.233Z,47
2024-03-31T11:31:05.276Z,51
2024-03-31T11:46:05.147Z,55
2024-03-31T12:01:04.924Z,68
2024-03-31T12:16:04.766Z,57
2024-03-31T12:31:04.763Z,54
2024-03-31T12:46:04.823Z,60
2024-03-31T13:01:04.894Z,57
2024-03-31T13:16:04.896Z,53
2024-03-31T13:31:04.993Z,51
2024-03-31T13:46:05.239Z,47
2024-03-31T14:01:05.090Z,48
2024-03-31T14:16:04.942Z,55
2024-03-31T14:31:05.126Z,48
2024-03-31T14:46:05.284Z,44
2024-03-31T15:01:05.184Z,50
2024-03-31T15:16:05.379Z,48
2024-03-31T15:31:05.682Z,39
2024-03-31T15:46:04.949Z,52
2024-03-31T16:01:05.105Z,50
2024-03-31T16:16:05.067Z,47
2024-03-31T16:31:05.002Z,49
2024-03-31T16:46:05.407Z,50
2024-03-31T17:01:04.878Z,49
2024-03-31T17:16:04.972Z,47
2024-03-31T17:31:05.502Z,59
2024-03-31T17:46:05.817Z,59
2024-03-31T18:01:05.875Z,45
2024-03-31T18:16:04.802Z,41
2024-03-31T18:31:04.885Z,38
2024-03-31T18:46:05.486Z,31
2024-03-31T19:01:05.371Z,31
2024-03-31T19:16:04.868Z,32
2024-03-31T19:31:05.429Z,42
2024-03-31T19:46:05.341Z,38
2024-03-31T20:01:04.903Z,37
2024-03-31T20:16:04.730Z,42
2024-03-31T20:31:04.815Z,41
2024-03-31T20:46:05.276Z,35
2024-03-31T21:01:05.350Z,34
2024-03-31T21:16:05.309Z,34
2024-03-31T21:31:05.623Z,35
2024-03-31T21:46:05.647Z,36
2024-03-31T22:01:05.702Z,26
2024-03-31T22:16:05.070Z,30
2024-03-31T22:31:05.104Z,33
2024-03-31T22:46:04.900Z,38
2024-03-31T23:01:05.289Z,38
2024-03-31T23:16:05.477Z,31
2024-03-31T23:31:05.546Z,34
2024-03-31T23:46:05.332Z,29
